Time;durP1;ratioP1;P1;durP2;ratioP2;P2;SDS_P1;SDS_P2;PMS_P1;PMS_P2;Temp;Humidity;BMP_temperature;BMP_pressure;BME280_temperature;BME280_humidity;BME280_pressure;Samples;Min_cycle;Max_cycle;Signal;HPM_P1;HPM_P2
2023/08/17 08:54:04;;;;;;;7.63;6.83;;;24.50;99.90;;;;;;5706539;23;20923;-71
2023/08/17 08:56:34;;;;;;;8.17;7.23;;;24.60;99.90;;;;;;4922494;28;1229871;-68
2023/08/17 08:59:04;;;;;;;8.43;7.57;;;24.80;99.90;;;;;;4988232;28;20424;-68
2023/08/17 09:01:33;;;;;;;10.20;8.40;;;24.90;99.90;;;;;;4983869;28;20424;-69
2023/08/17 09:04:00;;;;;;;11.97;7.00;;;24.90;99.90;;;;;;4990301;28;20494;-68
2023/08/17 09:06:27;;;;;;;10.03;7.50;;;25.00;99.90;;;;;;4989892;28;20412;-69
2023/08/17 09:08:53;;;;;;;7.37;6.17;;;25.10;99.90;;;;;;4984270;28;21965;-71
2023/08/17 09:11:19;;;;;;;9.63;8.60;;;25.20;99.90;;;;;;4983917;28;20481;-69
2023/08/17 09:13:44;;;;;;;8.00;6.77;;;25.20;99.90;;;;;;4994756;28;20465;-70
2023/08/17 09:16:10;;;;;;;9.47;7.63;;;25.20;99.90;;;;;;4984031;28;20190;-70
2023/08/17 09:18:35;;;;;;;8.80;7.57;;;25.20;99.90;;;;;;4993607;28;20170;-70
2023/08/17 09:21:01;;;;;;;11.17;10.07;;;25.30;99.90;;;;;;4970628;28;20610;-70
2023/08/17 09:23:27;;;;;;;8.80;8.00;;;25.30;99.90;;;;;;4980807;28;20204;-70
2023/08/17 09:25:57;;;;;;;8.40;7.60;;;25.40;99.90;;;;;;4984488;28;20277;-70
2023/08/17 09:28:24;;;;;;;7.70;6.90;;;25.40;99.90;;;;;;4986132;28;20181;-69
2023/08/17 09:31:05;;;;;;;8.00;7.20;;;25.40;99.90;;;;;;4985760;28;20467;-70
2023/08/17 09:33:31;;;;;;;7.53;6.70;;;25.50;99.90;;;;;;4980756;28;20543;-70
2023/08/17 09:35:59;;;;;;;8.83;6.73;;;25.50;99.90;;;;;;4989475;28;20412;-71
2023/08/17 09:38:26;;;;;;;6.80;6.10;;;25.50;99.90;;;;;;4985064;28;20439;-69
2023/08/17 09:40:52;;;;;;;7.93;6.23;;;25.50;99.90;;;;;;4978806;28;20424;-69
2023/08/17 09:43:20;;;;;;;7.30;6.60;;;25.60;99.90;;;;;;4982297;28;20432;-69
2023/08/17 09:45:47;;;;;;;7.27;6.30;;;25.60;99.90;;;;;;4986843;28;20185;-69
2023/08/17 09:48:18;;;;;;;8.27;6.80;;;25.70;99.90;;;;;;4985543;28;20441;-69
2023/08/17 09:50:47;;;;;;;7.00;6.30;;;25.80;99.90;;;;;;4983115;28;20483;-69
2023/08/17 09:53:17;;;;;;;12.97;9.70;;;25.90;99.90;;;;;;4980434;28;20814;-69
2023/08/17 09:55:44;;;;;;;8.63;7.03;;;25.90;99.90;;;;;;4992408;22;20520;-70
2023/08/17 09:58:14;;;;;;;7.80;7.00;;;26.00;99.90;;;;;;4980909;28;20421;-69
2023/08/17 10:00:45;;;;;;;9.60;8.60;;;26.00;99.90;;;;;;4981763;28;20436;-72
2023/08/17 10:03:13;;;;;;;7.97;6.40;;;26.00;99.90;;;;;;4977822;28;20432;-71
2023/08/17 10:05:40;;;;;;;8.07;5.50;;;26.10;99.90;;;;;;4962741;28;20560;-73
2023/08/17 10:08:08;;;;;;;12.43;8.37;;;26.20;99.90;;;;;;4960270;28;20422;-72
2023/08/17 10:10:38;;;;;;;9.40;8.23;;;26.30;99.90;;;;;;4964980;28;20448;-70
2023/08/17 10:13:09;;;;;;;10.23;9.07;;;26.40;99.90;;;;;;4961554;28;20425;-71
2023/08/17 10:16:00;;;;;;;9.80;8.80;;;26.50;99.90;;;;;;4961678;28;20429;-72
2023/08/17 10:18:42;;;;;;;10.13;8.60;;;26.40;99.90;;;;;;4968994;28;20406;-71
2023/08/17 10:21:18;;;;;;;10.50;9.07;;;26.10;99.90;;;;;;4967233;28;20445;-72
2023/08/17 10:23:44;;;;;;;9.10;7.90;;;26.10;99.90;;;;;;4962988;28;20489;-71
2023/08/17 10:26:10;;;;;;;9.53;8.30;;;26.30;99.90;;;;;;4958628;28;20481;-73
2023/08/17 10:28:36;;;;;;;10.47;8.50;;;26.30;99.90;;;;;;4957917;28;20504;-73
2023/08/17 10:31:02;;;;;;;9.00;8.10;;;26.60;99.90;;;;;;4966099;28;20241;-73
2023/08/17 10:33:28;;;;;;;8.50;7.60;;;26.70;99.90;;;;;;4960443;28;20455;-70
2023/08/17 10:35:55;;;;;;;9.33;8.20;;;26.70;99.90;;;;;;4962326;28;20732;-71
2023/08/17 10:38:21;;;;;;;9.50;8.20;;;26.80;99.90;;;;;;4959064;28;21142;-73
2023/08/17 10:41:07;;;;;;;9.80;8.90;;;26.80;99.90;;;;;;4964141;28;20505;-74
2023/08/17 10:43:34;;;;;;;8.20;7.40;;;27.00;99.90;;;;;;4966629;28;20225;-75
2023/08/17 10:46:16;;;;;;;10.23;8.23;;;27.10;99.90;;;;;;4966577;28;20458;-75
2023/08/17 10:48:44;;;;;;;8.60;7.40;;;27.20;99.90;;;;;;4964756;28;20522;-75
2023/08/17 10:51:13;;;;;;;9.53;8.53;;;27.30;99.90;;;;;;4965447;28;20827;-75
2023/08/17 10:53:43;;;;;;;15.70;8.53;;;27.30;99.90;;;;;;4963892;28;21223;-75
2023/08/17 10:56:12;;;;;;;11.73;9.30;;;27.40;99.90;;;;;;4967486;28;20468;-75
2023/08/17 10:58:37;;;;;;;10.57;9.50;;;27.40;99.90;;;;;;4963605;28;20517;-75
2023/08/17 11:01:03;;;;;;;9.10;7.90;;;27.50;99.90;;;;;;4968637;28;20998;-75
2023/08/17 11:03:29;;;;;;;9.70;8.80;;;27.70;99.90;;;;;;4969145;28;20204;-75
2023/08/17 11:05:56;;;;;;;12.20;10.30;;;27.70;99.90;;;;;;4962974;28;20277;-75
2023/08/17 11:08:34;;;;;;;11.37;10.27;;;27.50;99.90;;;;;;4966012;28;20213;-74
2023/08/17 11:11:07;;;;;;;10.47;9.47;;;27.40;99.90;;;;;;4963218;28;20464;-75
2023/08/17 11:13:44;;;;;;;11.47;9.50;;;27.40;99.90;;;;;;4957719;28;20962;-75
2023/08/17 11:16:11;;;;;;;11.53;9.70;;;27.10;99.90;;;;;;4955619;28;20813;-74
2023/08/17 11:18:37;;;;;;;10.87;9.67;;;27.10;99.90;;;;;;4965213;28;20502;-74
2023/08/17 11:21:05;;;;;;;12.70;10.27;;;27.20;99.90;;;;;;4954947;28;20468;-74
2023/08/17 11:23:32;;;;;;;11.27;10.27;;;27.30;99.90;;;;;;4964714;28;20504;-75
2023/08/17 11:25:58;;;;;;;10.53;9.43;;;27.40;99.90;;;;;;4966665;28;20486;-74
2023/08/17 11:28:24;;;;;;;11.77;9.60;;;27.30;99.90;;;;;;4967692;28;20452;-75
2023/08/17 11:30:58;;;;;;;13.80;9.90;;;27.40;99.90;;;;;;4967686;28;20425;-75
2023/08/17 11:33:25;;;;;;;12.90;9.47;;;27.40;99.90;;;;;;4959603;28;20924;-75
2023/08/17 11:35:51;;;;;;;10.63;9.63;;;27.40;99.90;;;;;;4965661;28;20788;-75
2023/08/17 11:38:16;;;;;;;12.00;10.63;;;27.50;99.90;;;;;;4967659;28;20433;-75
2023/08/17 11:40:42;;;;;;;11.73;10.27;;;27.40;99.90;;;;;;4968359;28;20191;-74
2023/08/17 11:43:08;;;;;;;10.90;9.90;;;27.50;99.90;;;;;;4967126;28;20212;-75
2023/08/17 11:45:33;;;;;;;11.40;10.27;;;27.60;99.90;;;;;;4965369;28;20637;-75
2023/08/17 11:47:59;;;;;;;13.20;9.77;;;27.70;99.90;;;;;;4966642;28;20266;-74
2023/08/17 11:50:26;;;;;;;12.60;9.47;;;27.60;99.90;;;;;;4967031;28;20525;-75
2023/08/17 11:52:51;;;;;;;10.50;9.60;;;27.80;99.90;;;;;;4961273;28;20183;-75
2023/08/17 11:55:20;;;;;;;11.63;10.17;;;27.90;99.90;;;;;;4963082;28;20543;-74
2023/08/17 11:57:46;;;;;;;12.50;11.20;;;27.90;99.90;;;;;;4961882;28;20203;-74
2023/08/17 12:00:18;;;;;;;12.93;11.63;;;27.80;99.90;;;;;;4963433;28;20456;-78
2023/08/17 12:02:50;;;;;;;13.10;11.43;;;27.70;99.90;;;;;;4960463;28;20441;-75
2023/08/17 12:05:26;;;;;;;12.20;10.90;;;27.70;99.90;;;;;;4965602;28;22193;-74
2023/08/17 12:07:55;;;;;;;16.10;11.80;;;27.70;99.90;;;;;;4961348;28;20470;-74
2023/08/17 12:10:24;;;;;;;13.83;12.00;;;27.70;99.90;;;;;;4960214;28;20434;-76
2023/08/17 12:12:50;;;;;;;14.07;11.23;;;27.70;99.90;;;;;;4965626;28;21059;-75
2023/08/17 12:15:16;;;;;;;13.60;12.20;;;27.80;99.90;;;;;;4959347;28;20480;-77
2023/08/17 12:17:50;;;;;;;13.70;12.20;;;27.80;99.90;;;;;;4959238;28;20199;-77
2023/08/17 12:20:17;;;;;;;11.40;10.30;;;28.00;99.90;;;;;;4959987;28;20479;-76
2023/08/17 12:22:43;;;;;;;11.60;10.50;;;28.50;99.90;;;;;;4960188;28;20537;-73
2023/08/17 12:25:09;;;;;;;12.93;10.93;;;29.00;99.90;;;;;;4953122;28;20521;-73
2023/08/17 12:27:35;;;;;;;13.07;11.67;;;29.40;99.90;;;;;;4956706;28;20191;-74
2023/08/17 12:30:01;;;;;;;11.87;10.07;;;29.80;99.90;;;;;;4958657;28;20433;-75
2023/08/17 12:32:26;;;;;;;10.93;9.93;;;30.10;99.90;;;;;;4966064;28;20604;-74
2023/08/17 12:34:52;;;;;;;10.93;9.90;;;30.30;99.90;;;;;;4962053;28;20206;-75
2023/08/17 12:37:21;;;;;;;11.87;10.63;;;30.40;99.90;;;;;;4965774;28;20263;-74
2023/08/17 12:39:47;;;;;;;11.03;9.93;;;30.50;99.90;;;;;;4969342;28;20175;-75
2023/08/17 12:42:13;;;;;;;12.17;10.83;;;30.70;99.90;;;;;;4965910;28;20665;-73
2023/08/17 12:44:39;;;;;;;11.67;10.50;;;30.80;99.90;;;;;;4965945;28;20802;-75
2023/08/17 12:47:05;;;;;;;10.57;9.57;;;31.00;99.90;;;;;;4968779;28;20946;-76
2023/08/17 12:49:31;;;;;;;10.57;9.57;;;31.10;99.90;;;;;;4970530;28;20437;-75
2023/08/17 12:51:56;;;;;;;10.03;9.13;;;31.20;99.90;;;;;;4967483;28;20596;-72
2023/08/17 12:54:22;;;;;;;10.60;9.70;;;31.30;99.90;;;;;;4965531;28;20296;-72
2023/08/17 12:56:48;;;;;;;11.30;10.17;;;31.40;99.90;;;;;;4970307;28;20631;-75
2023/08/17 12:59:13;;;;;;;10.60;9.60;;;31.50;99.90;;;;;;4970154;28;20190;-75
2023/08/17 13:01:39;;;;;;;9.80;8.90;;;31.60;99.90;;;;;;4970755;28;20269;-77
2023/08/17 13:04:05;;;;;;;10.93;9.83;;;31.70;99.90;;;;;;4968276;28;20285;-73
2023/08/17 13:06:31;;;;;;;11.27;9.83;;;31.80;99.90;;;;;;4971225;28;20561;-74
2023/08/17 13:08:57;;;;;;;9.93;8.93;;;31.70;99.90;;;;;;4969200;28;20429;-73
2023/08/17 13:11:22;;;;;;;11.77;10.67;;;31.70;99.90;;;;;;4967770;28;20257;-73
2023/08/17 13:13:48;;;;;;;13.37;9.77;;;31.80;99.90;;;;;;4970653;28;20656;-74
2023/08/17 13:16:13;;;;;;;11.27;10.23;;;31.80;99.90;;;;;;4968016;28;20528;-75
2023/08/17 13:18:39;;;;;;;15.17;9.67;;;31.80;99.90;;;;;;4965753;28;20189;-76
2023/08/17 13:21:05;;;;;;;10.93;9.97;;;31.80;99.90;;;;;;4964119;28;20273;-75
2023/08/17 13:23:30;;;;;;;11.10;10.10;;;31.80;99.90;;;;;;4967009;28;20190;-76
2023/08/17 13:25:56;;;;;;;10.50;9.50;;;31.90;99.90;;;;;;4968629;28;20298;-75
2023/08/17 13:28:22;;;;;;;11.47;10.27;;;31.90;99.90;;;;;;4966395;28;20191;-75
2023/08/17 13:30:47;;;;;;;11.33;9.37;;;31.90;99.90;;;;;;4962662;28;20241;-75
2023/08/17 13:33:13;;;;;;;10.77;9.77;;;31.90;99.90;;;;;;4965997;28;20200;-78
2023/08/17 13:35:39;;;;;;;10.20;9.20;;;32.00;99.90;;;;;;4967739;28;20195;-74
2023/08/17 13:38:05;;;;;;;11.50;8.97;;;32.10;99.90;;;;;;4963931;28;20222;-75
2023/08/17 13:40:31;;;;;;;10.87;9.70;;;32.10;99.90;;;;;;4965840;28;20178;-76
2023/08/17 13:42:59;;;;;;;10.00;9.10;;;32.20;99.90;;;;;;4963877;28;20187;-75
2023/08/17 13:45:25;;;;;;;9.33;8.40;;;32.30;99.90;;;;;;4965353;28;20595;-74
2023/08/17 13:47:51;;;;;;;10.77;9.37;;;32.30;99.90;;;;;;4969458;28;20448;-75
2023/08/17 13:50:18;;;;;;;9.17;8.37;;;32.40;99.90;;;;;;4969223;28;20813;-75
2023/08/17 13:52:44;;;;;;;9.90;8.80;;;32.50;99.90;;;;;;4970479;28;20186;-75
2023/08/17 13:55:10;;;;;;;9.10;8.30;;;32.60;99.90;;;;;;4963857;28;21077;-75
2023/08/17 13:57:35;;;;;;;11.70;7.93;;;32.70;99.90;;;;;;4968183;28;20302;-75
2023/08/17 14:00:01;;;;;;;9.07;8.17;;;32.80;99.90;;;;;;4962177;28;20194;-75
2023/08/17 14:02:27;;;;;;;10.83;8.30;;;33.00;99.90;;;;;;4967384;28;20220;-75
2023/08/17 14:04:52;;;;;;;10.77;8.30;;;33.20;99.90;;;;;;4967093;28;20216;-75
2023/08/17 14:07:18;;;;;;;11.43;8.77;;;33.20;99.90;;;;;;4970249;28;20209;-75
2023/08/17 14:09:43;;;;;;;9.20;8.40;;;33.40;99.90;;;;;;4970364;28;20182;-76
2023/08/17 14:12:09;;;;;;;8.83;7.93;;;33.60;99.90;;;;;;4958085;28;20258;-75
2023/08/17 14:14:34;;;;;;;9.50;8.60;;;33.70;99.90;;;;;;4967140;28;20289;-75
2023/08/17 14:17:02;;;;;;;9.33;8.53;;;33.90;99.90;;;;;;4963497;28;20827;-75
2023/08/17 14:19:28;;;;;;;8.03;7.33;;;34.10;99.90;;;;;;4963246;28;21150;-75
2023/08/17 14:21:53;;;;;;;8.50;7.70;;;34.30;99.90;;;;;;4963242;28;20880;-75
2023/08/17 14:24:19;;;;;;;8.87;8.07;;;34.50;99.90;;;;;;4967301;28;20203;-75
2023/08/17 14:26:45;;;;;;;9.40;7.87;;;34.70;99.90;;;;;;4968441;28;20265;-75
2023/08/17 14:29:10;;;;;;;9.73;8.73;;;34.90;99.90;;;;;;4969436;28;20214;-76
2023/08/17 14:31:36;;;;;;;7.83;7.13;;;35.00;99.90;;;;;;4965051;28;20297;-76
2023/08/17 14:34:01;;;;;;;8.30;7.60;;;35.00;99.90;;;;;;4964155;28;20238;-76
2023/08/17 14:36:27;;;;;;;8.50;7.70;;;35.20;99.90;;;;;;4968379;28;20187;-76
2023/08/17 14:38:52;;;;;;;9.10;8.30;;;35.50;99.90;;;;;;4966517;28;20587;-75
2023/08/17 14:41:18;;;;;;;7.97;7.17;;;35.70;99.90;;;;;;4966302;28;20604;-74
2023/08/17 14:43:43;;;;;;;9.30;8.50;;;35.80;99.90;;;;;;4968164;28;20581;-76
2023/08/17 14:46:09;;;;;;;7.57;6.97;;;36.20;99.90;;;;;;4966067;28;20751;-75
2023/08/17 14:48:34;;;;;;;8.63;7.87;;;36.70;99.90;;;;;;4965356;28;20733;-75
2023/08/17 14:51:00;;;;;;;7.53;6.93;;;37.20;99.90;;;;;;4964848;28;20214;-75
2023/08/17 14:53:26;;;;;;;8.10;7.40;;;37.50;99.80;;;;;;4968109;28;20215;-74
2023/08/17 14:55:51;;;;;;;7.97;7.17;;;37.80;99.20;;;;;;4968008;28;20260;-74
2023/08/17 14:58:18;;;;;;;9.40;8.70;;;38.10;98.20;;;;;;4964185;28;20197;-74
2023/08/17 15:00:43;;;;;;;7.70;7.00;;;38.30;96.10;;;;;;4967831;28;20808;-75
2023/08/17 15:03:09;;;;;;;7.53;6.93;;;38.30;95.60;;;;;;4959356;28;20469;-75
2023/08/17 15:05:36;;;;;;;8.57;7.47;;;38.30;95.00;;;;;;4968199;28;20226;-75
2023/08/17 15:08:02;;;;;;;7.70;7.00;;;38.20;94.40;;;;;;4962923;28;20291;-75
2023/08/17 15:10:27;;;;;;;7.63;6.87;;;38.20;94.50;;;;;;4965126;28;20422;-73
2023/08/17 15:12:53;;;;;;;8.50;7.70;;;37.90;94.20;;;;;;4965574;28;21004;-73
2023/08/17 15:15:19;;;;;;;8.57;7.87;;;37.60;94.50;;;;;;4964689;28;20225;-75
2023/08/17 15:17:44;;;;;;;6.83;6.33;;;37.20;94.70;;;;;;4964975;28;20269;-75
2023/08/17 15:20:11;;;;;;;8.67;7.97;;;36.70;94.90;;;;;;4956903;28;20210;-76
2023/08/17 15:22:36;;;;;;;7.67;6.97;;;36.10;94.40;;;;;;4966991;28;20199;-75
2023/08/17 15:25:02;;;;;;;7.90;7.30;;;35.60;95.50;;;;;;4968271;28;20462;-75
2023/08/17 15:27:28;;;;;;;7.83;7.20;;;35.40;95.60;;;;;;4965766;28;20178;-74
2023/08/17 15:29:54;;;;;;;7.57;6.90;;;35.10;95.80;;;;;;4966072;28;20921;-74
2023/08/17 15:32:19;;;;;;;9.70;8.90;;;34.90;96.90;;;;;;4965210;28;20258;-73
2023/08/17 15:34:45;;;;;;;8.70;8.00;;;34.70;97.20;;;;;;4967966;28;20214;-74
2023/08/17 15:37:11;;;;;;;8.63;7.73;;;34.60;97.30;;;;;;4962587;28;20259;-74
2023/08/17 15:39:36;;;;;;;9.43;8.40;;;34.40;97.50;;;;;;4965800;28;20186;-73
2023/08/17 15:42:02;;;;;;;9.60;8.70;;;34.20;98.10;;;;;;4966128;28;20909;-76
2023/08/17 15:44:29;;;;;;;9.33;8.53;;;34.00;98.60;;;;;;4964805;28;20273;-75
2023/08/17 15:46:55;;;;;;;9.00;8.20;;;33.80;99.30;;;;;;4968732;28;20201;-76
2023/08/17 15:49:21;;;;;;;9.13;8.23;;;33.60;99.90;;;;;;4966505;28;20408;-75
2023/08/17 15:51:47;;;;;;;10.67;8.37;;;33.30;99.90;;;;;;4959912;28;20747;-76
2023/08/17 15:54:12;;;;;;;8.90;8.20;;;33.20;99.90;;;;;;4965747;28;20214;-76
2023/08/17 15:56:38;;;;;;;8.60;7.83;;;33.10;99.90;;;;;;4967531;28;20186;-76
2023/08/17 15:59:04;;;;;;;10.80;7.93;;;33.00;99.90;;;;;;4967278;28;20694;-74
2023/08/17 16:01:29;;;;;;;9.30;8.40;;;32.90;99.90;;;;;;4969405;28;20203;-75
2023/08/17 16:03:55;;;;;;;8.80;8.00;;;32.80;99.90;;;;;;4968266;28;20199;-74
2023/08/17 16:06:20;;;;;;;8.93;8.13;;;32.70;99.90;;;;;;4963442;28;20194;-74
2023/08/17 16:08:46;;;;;;;8.20;7.50;;;32.50;99.90;;;;;;4967732;28;20219;-74
2023/08/17 16:11:12;;;;;;;8.93;8.23;;;32.50;99.90;;;;;;4960059;28;20253;-73
2023/08/17 16:13:38;;;;;;;8.60;7.90;;;32.30;99.90;;;;;;4964854;28;20257;-72
2023/08/17 16:16:04;;;;;;;9.23;8.43;;;32.20;99.90;;;;;;4963352;28;20207;-74
2023/08/17 16:18:30;;;;;;;9.80;8.90;;;32.20;99.90;;;;;;4981698;28;20828;-74
2023/08/17 16:20:56;;;;;;;10.17;9.20;;;32.10;99.90;;;;;;4965080;28;20454;-75
2023/08/17 16:23:21;;;;;;;8.70;8.00;;;32.00;99.90;;;;;;4965197;28;20182;-75
2023/08/17 16:25:47;;;;;;;10.00;9.00;;;31.90;99.90;;;;;;4968095;28;20202;-75
2023/08/17 16:28:12;;;;;;;11.53;9.40;;;31.90;99.90;;;;;;4962339;28;20262;-76
2023/08/17 16:30:40;;;;;;;10.07;9.17;;;31.80;99.90;;;;;;4960237;28;20617;-75
2023/08/17 16:33:05;;;;;;;11.03;10.10;;;31.70;99.90;;;;;;4959539;28;20618;-73
2023/08/17 16:35:31;;;;;;;10.10;9.20;;;31.60;99.90;;;;;;4959552;28;20433;-75
2023/08/17 16:37:56;;;;;;;11.10;10.13;;;31.50;99.90;;;;;;4959930;28;20287;-75
2023/08/17 16:40:22;;;;;;;10.13;9.33;;;31.40;99.90;;;;;;4961912;28;20195;-73
2023/08/17 16:42:49;;;;;;;10.50;9.60;;;31.40;99.90;;;;;;4957755;28;20205;-72
2023/08/17 16:45:15;;;;;;;17.03;15.53;;;31.30;99.90;;;;;;4958483;28;20488;-73
2023/08/17 16:47:41;;;;;;;14.47;13.17;;;31.30;99.90;;;;;;4956901;28;20426;-73
2023/08/17 16:50:07;;;;;;;14.40;13.00;;;31.20;99.90;;;;;;4956063;28;21348;-73
2023/08/17 16:52:33;;;;;;;13.37;11.30;;;31.20;99.90;;;;;;4955969;28;21083;-73
2023/08/17 16:54:59;;;;;;;10.40;8.60;;;31.10;99.90;;;;;;4955853;28;20505;-73
2023/08/17 16:57:24;;;;;;;11.77;10.67;;;31.10;99.90;;;;;;4961333;28;20229;-72
2023/08/17 16:59:50;;;;;;;9.53;8.53;;;31.10;99.90;;;;;;4962958;28;20183;-73
2023/08/17 17:02:15;;;;;;;8.90;8.10;;;31.00;99.90;;;;;;4959376;28;20202;-73
2023/08/17 17:04:42;;;;;;;10.27;9.37;;;31.00;99.90;;;;;;4963202;28;20218;-73
2023/08/17 17:07:08;;;;;;;10.20;8.67;;;31.00;99.90;;;;;;4961739;28;20192;-73
2023/08/17 17:09:34;;;;;;;10.30;9.37;;;31.00;99.90;;;;;;4959278;28;20446;-73
2023/08/17 17:12:00;;;;;;;13.13;9.00;;;31.00;99.90;;;;;;4960718;28;20529;-73
2023/08/17 17:14:25;;;;;;;9.17;8.30;;;31.00;99.90;;;;;;4961010;28;20230;-73
2023/08/17 17:16:51;;;;;;;10.33;9.33;;;31.00;99.90;;;;;;4961881;28;20182;-73
2023/08/17 17:19:18;;;;;;;9.87;8.87;;;31.00;99.90;;;;;;4965731;28;20197;-72
2023/08/17 17:21:44;;;;;;;8.83;8.03;;;31.00;99.90;;;;;;4964113;28;20189;-72
2023/08/17 17:24:10;;;;;;;9.10;8.37;;;31.00;99.90;;;;;;4965595;28;20441;-72
2023/08/17 17:26:38;;;;;;;8.57;7.87;;;30.90;99.90;;;;;;4967725;28;20751;-72
2023/08/17 17:29:07;;;;;;;10.17;9.20;;;30.90;99.90;;;;;;4962807;28;20484;-72
2023/08/17 17:31:34;;;;;;;10.00;8.60;;;30.90;99.90;;;;;;4965233;28;20425;-78
2023/08/17 17:33:59;;;;;;;8.83;7.97;;;30.80;99.90;;;;;;4963743;28;20465;-76
2023/08/17 17:36:26;;;;;;;8.87;7.90;;;30.80;99.90;;;;;;4965220;28;20433;-75
2023/08/17 17:38:52;;;;;;;16.60;9.60;;;30.70;99.90;;;;;;4965332;28;20213;-76
2023/08/17 17:41:18;;;;;;;8.60;7.70;;;30.70;99.90;;;;;;4958237;28;20557;-76
2023/08/17 17:43:44;;;;;;;10.93;8.57;;;30.70;99.90;;;;;;4956401;28;20620;-75
2023/08/17 17:46:09;;;;;;;8.23;7.53;;;30.60;99.90;;;;;;4964002;28;20190;-74
2023/08/17 17:48:35;;;;;;;10.27;9.00;;;30.60;99.90;;;;;;4960794;28;20221;-76
2023/08/17 17:51:01;;;;;;;9.10;8.20;;;30.50;99.90;;;;;;4960655;28;20912;-76
2023/08/17 17:53:26;;;;;;;9.67;8.77;;;30.50;99.90;;;;;;4947619;28;20560;-75
2023/08/17 17:55:52;;;;;;;9.50;8.60;;;30.50;99.90;;;;;;4962282;28;21934;-75
2023/08/17 17:58:17;;;;;;;10.13;9.23;;;30.40;99.90;;;;;;4961337;28;20229;-76
2023/08/17 18:00:46;;;;;;;9.73;8.93;;;30.40;99.90;;;;;;4964733;28;20189;-76
2023/08/17 18:03:14;;;;;;;9.93;8.93;;;30.30;99.90;;;;;;4961934;28;20606;-76
2023/08/17 18:05:43;;;;;;;9.40;8.40;;;30.30;99.90;;;;;;4960969;28;21010;-76
2023/08/17 18:08:09;;;;;;;9.27;8.40;;;30.20;99.90;;;;;;4963208;28;20943;-76
2023/08/17 18:10:42;;;;;;;10.60;9.60;;;30.20;99.90;;;;;;4964142;28;20418;-76
2023/08/17 18:13:08;;;;;;;11.90;8.63;;;30.10;99.90;;;;;;4961229;28;20182;-77
2023/08/17 18:15:36;;;;;;;10.60;9.60;;;30.10;99.90;;;;;;4958346;28;20545;-76
2023/08/17 18:18:05;;;;;;;9.57;8.67;;;30.00;99.90;;;;;;4959985;28;20189;-76
2023/08/17 18:20:31;;;;;;;9.53;8.57;;;30.00;99.90;;;;;;4958471;28;20433;-76
2023/08/17 18:22:58;;;;;;;9.40;8.60;;;29.90;99.90;;;;;;4962522;28;20985;-77
2023/08/17 18:25:24;;;;;;;9.20;8.43;;;29.90;99.90;;;;;;4957766;28;20516;-73
2023/08/17 18:27:50;;;;;;;9.97;9.17;;;29.80;99.90;;;;;;4959661;28;20947;-73
2023/08/17 18:30:16;;;;;;;10.43;8.77;;;29.80;99.90;;;;;;4966351;28;20432;-74
2023/08/17 18:32:42;;;;;;;9.67;8.67;;;29.70;99.90;;;;;;4959466;28;20191;-73
2023/08/17 18:35:08;;;;;;;10.70;9.70;;;29.70;99.90;;;;;;4954229;28;20226;-73
2023/08/17 18:37:34;;;;;;;10.20;9.20;;;29.60;99.90;;;;;;4960044;28;20240;-73
2023/08/17 18:40:00;;;;;;;9.80;8.90;;;29.60;99.90;;;;;;4963292;28;20422;-73
2023/08/17 18:42:28;;;;;;;10.13;9.23;;;29.50;99.90;;;;;;4961459;28;20444;-73
2023/08/17 18:44:54;;;;;;;12.53;9.17;;;29.50;99.90;;;;;;4960925;28;20215;-73
2023/08/17 18:47:23;;;;;;;9.97;9.07;;;29.50;99.90;;;;;;4962880;28;20501;-71
2023/08/17 18:49:50;;;;;;;9.97;9.07;;;29.40;99.90;;;;;;4957966;28;20437;-71
2023/08/17 18:52:16;;;;;;;9.00;8.23;;;29.40;99.90;;;;;;4958125;28;20450;-71
2023/08/17 18:55:05;;;;;;;9.40;8.70;;;29.40;99.90;;;;;;4963086;28;20535;-71
2023/08/17 18:57:30;;;;;;;9.60;8.57;;;29.30;99.90;;;;;;4961641;28;20182;-71
2023/08/17 18:59:56;;;;;;;10.27;9.37;;;29.30;99.90;;;;;;4960544;28;20979;-71
2023/08/17 19:02:22;;;;;;;11.03;9.20;;;29.20;99.90;;;;;;4963177;28;20240;-71
2023/08/17 19:04:48;;;;;;;9.97;8.97;;;29.20;99.90;;;;;;4961094;28;20635;-70
2023/08/17 19:07:14;;;;;;;17.87;16.17;;;29.10;99.90;;;;;;4960435;28;20360;-71
2023/08/17 19:09:40;;;;;;;11.67;10.60;;;29.00;99.90;;;;;;4960457;28;20469;-71
2023/08/17 19:12:06;;;;;;;12.30;9.70;;;29.00;99.90;;;;;;4958663;28;20438;-71
2023/08/17 19:14:32;;;;;;;13.97;12.40;;;29.00;99.90;;;;;;4961216;28;20790;-71
2023/08/17 19:16:58;;;;;;;12.50;11.30;;;28.90;99.90;;;;;;4963057;28;20192;-71
2023/08/17 19:19:24;;;;;;;10.00;9.10;;;28.80;99.90;;;;;;4960365;28;20437;-71
2023/08/17 19:21:50;;;;;;;11.13;9.87;;;28.80;99.90;;;;;;4960401;28;20942;-71
2023/08/17 19:24:15;;;;;;;9.90;9.00;;;28.80;99.90;;;;;;4958315;28;20292;-71
2023/08/17 19:26:41;;;;;;;11.20;10.00;;;28.70;99.90;;;;;;4958109;28;20225;-71
2023/08/17 19:29:06;;;;;;;9.80;8.90;;;28.70;99.90;;;;;;4959412;28;20202;-71
2023/08/17 19:31:32;;;;;;;11.07;9.97;;;28.70;99.90;;;;;;4960889;28;20202;-71
2023/08/17 19:33:59;;;;;;;10.40;9.40;;;28.60;99.90;;;;;;4958539;28;20593;-72
2023/08/17 19:36:25;;;;;;;10.30;9.37;;;28.60;99.90;;;;;;4957145;28;20991;-71
2023/08/17 19:38:51;;;;;;;10.80;9.90;;;28.60;99.90;;;;;;4959892;28;20453;-71
2023/08/17 19:41:16;;;;;;;12.63;10.33;;;28.50;99.90;;;;;;4957836;28;20193;-72
2023/08/17 19:43:42;;;;;;;15.13;10.63;;;28.50;99.90;;;;;;4966693;28;20217;-72
2023/08/17 19:46:07;;;;;;;9.67;8.30;;;28.50;99.90;;;;;;4964854;28;20672;-72
2023/08/17 19:48:33;;;;;;;10.20;9.20;;;28.50;99.90;;;;;;4965272;28;20193;-72
2023/08/17 19:50:59;;;;;;;10.80;9.70;;;28.50;99.90;;;;;;4958231;28;20367;-72
2023/08/17 19:53:25;;;;;;;9.87;8.97;;;28.40;99.90;;;;;;4965670;28;20268;-72
2023/08/17 19:55:50;;;;;;;14.00;9.03;;;28.40;99.90;;;;;;4962234;28;20488;-72
2023/08/17 19:58:16;;;;;;;10.77;9.87;;;28.40;99.90;;;;;;4959348;28;20337;-72
2023/08/17 20:00:42;;;;;;;11.77;9.10;;;28.30;99.90;;;;;;4967045;28;20181;-72
2023/08/17 20:03:07;;;;;;;10.33;9.03;;;28.30;99.90;;;;;;4958471;28;20483;-72
2023/08/17 20:05:34;;;;;;;10.60;9.60;;;28.30;99.90;;;;;;4964985;28;20209;-72
2023/08/17 20:07:59;;;;;;;10.40;9.43;;;28.30;99.90;;;;;;4957186;28;20542;-72
2023/08/17 20:10:25;;;;;;;10.30;9.30;;;28.20;99.90;;;;;;4965261;28;20501;-72
2023/08/17 20:12:50;;;;;;;11.27;10.13;;;28.20;99.90;;;;;;4964348;28;20553;-72
2023/08/17 20:15:16;;;;;;;10.27;9.33;;;28.10;99.90;;;;;;4961036;28;20264;-72
2023/08/17 20:17:42;;;;;;;11.80;10.40;;;28.10;99.90;;;;;;4965646;28;20175;-72
2023/08/17 20:20:09;;;;;;;11.07;10.00;;;28.10;99.90;;;;;;4964273;28;20186;-72
2023/08/17 20:22:35;;;;;;;10.50;9.40;;;28.00;99.90;;;;;;4961554;28;20718;-72
2023/08/17 20:25:03;;;;;;;13.27;9.20;;;28.00;99.90;;;;;;4966156;28;20438;-72
2023/08/17 20:27:29;;;;;;;11.47;9.83;;;28.00;99.90;;;;;;4964093;28;20274;-72
2023/08/17 20:29:54;;;;;;;10.37;9.47;;;28.00;99.90;;;;;;4965584;28;20529;-72
2023/08/17 20:32:20;;;;;;;10.53;9.33;;;27.90;99.90;;;;;;4959842;28;20186;-72
2023/08/17 20:34:45;;;;;;;10.83;9.73;;;27.90;99.90;;;;;;4963266;28;20613;-72
2023/08/17 20:37:11;;;;;;;17.37;15.67;;;27.80;99.90;;;;;;4961954;28;20202;-72
2023/08/17 20:39:38;;;;;;;17.90;16.23;;;27.80;99.90;;;;;;4964247;28;20645;-72
2023/08/17 20:42:07;;;;;;;12.07;10.87;;;27.80;99.90;;;;;;4967685;28;20178;-72
2023/08/17 20:44:33;;;;;;;12.13;10.30;;;27.70;99.90;;;;;;4963496;28;20865;-72
2023/08/17 20:46:58;;;;;;;9.93;9.07;;;27.70;99.90;;;;;;4963031;28;20516;-72
2023/08/17 20:49:24;;;;;;;9.40;8.60;;;27.60;99.90;;;;;;4966639;28;20182;-71
2023/08/17 20:51:50;;;;;;;11.40;10.30;;;27.60;99.90;;;;;;4966438;28;20266;-71
2023/08/17 20:54:16;;;;;;;10.17;9.23;;;27.60;99.90;;;;;;4965829;28;20215;-71
2023/08/17 20:56:41;;;;;;;10.37;9.37;;;27.60;99.90;;;;;;4967470;28;20189;-72
2023/08/17 20:59:07;;;;;;;10.57;9.50;;;27.60;99.90;;;;;;4969710;28;20179;-71
2023/08/17 21:01:32;;;;;;;10.97;9.90;;;27.60;99.90;;;;;;4962124;28;20197;-72
2023/08/17 21:03:58;;;;;;;10.27;9.27;;;27.60;99.90;;;;;;4970166;28;20214;-72
2023/08/17 21:06:23;;;;;;;11.50;9.07;;;27.50;99.90;;;;;;4967316;28;20197;-72
2023/08/17 21:08:49;;;;;;;10.77;9.77;;;27.50;99.90;;;;;;4970307;28;20221;-72
2023/08/17 21:11:14;;;;;;;10.33;9.43;;;27.50;99.90;;;;;;4965713;28;20191;-72
2023/08/17 21:13:40;;;;;;;9.60;8.80;;;27.40;99.90;;;;;;4966152;28;20272;-72
2023/08/17 21:16:07;;;;;;;10.40;9.23;;;27.40;99.90;;;;;;4965877;28;20731;-72
2023/08/17 21:18:33;;;;;;;10.83;9.83;;;27.40;99.90;;;;;;4968165;28;20175;-71
2023/08/17 21:20:59;;;;;;;10.70;8.70;;;27.40;99.90;;;;;;4970570;28;20429;-72
2023/08/17 21:23:25;;;;;;;10.47;9.47;;;27.40;99.90;;;;;;4967216;28;20430;-71
2023/08/17 21:25:52;;;;;;;11.73;10.63;;;27.40;99.90;;;;;;4971147;28;20799;-72
2023/08/17 21:28:20;;;;;;;12.20;10.00;;;27.30;99.90;;;;;;4970267;28;20789;-72